createdAt,value
2023-01-18T00:01:01.219Z,26.15
2023-01-18T00:03:27.739Z,26.55
2023-01-18T00:05:54.884Z,28.73
2023-01-18T00:08:21.256Z,25.08
2023-01-18T00:10:47.666Z,23.80
2023-01-18T00:13:13.989Z,26.98
2023-01-18T00:15:40.440Z,28.95
2023-01-18T00:18:07.202Z,28.77
2023-01-18T00:20:33.593Z,34.95
2023-01-18T00:23:04.131Z,32.40
2023-01-18T00:25:30.857Z,31.77
2023-01-18T00:27:57.556Z,40.35
2023-01-18T00:30:27.337Z,34.92
2023-01-18T00:32:56.617Z,34.13
2023-01-18T00:35:24.085Z,32.03
2023-01-18T00:37:51.860Z,36.92
2023-01-18T00:40:19.625Z,35.15
2023-01-18T00:43:04.692Z,35.40
2023-01-18T00:45:31.164Z,30.33
2023-01-18T00:47:58.333Z,32.33
2023-01-18T00:50:25.107Z,29.58
2023-01-18T00:52:56.668Z,32.50
2023-01-18T00:55:23.717Z,28.63
2023-01-18T00:57:50.413Z,28.10
2023-01-18T01:00:19.540Z,28.38
2023-01-18T01:02:46.350Z,27.50
2023-01-18T01:05:40.498Z,27.17
2023-01-18T01:08:07.429Z,28.42
2023-01-18T01:10:36.625Z,26.48
2023-01-18T01:13:21.502Z,29.92
2023-01-18T01:16:06.278Z,30.00
2023-01-18T01:18:51.117Z,31.98
2023-01-18T01:21:36.184Z,27.83
2023-01-18T01:24:21.077Z,29.83
2023-01-18T01:26:47.619Z,31.83
2023-01-18T01:29:14.128Z,26.55
2023-01-18T01:31:40.691Z,29.90
2023-01-18T01:34:07.252Z,32.13
2023-01-18T01:36:33.654Z,28.35
2023-01-18T01:39:00.113Z,28.00
2023-01-18T01:41:29.669Z,27.20
2023-01-18T01:43:58.932Z,26.45
2023-01-18T01:46:36.993Z,29.17
2023-01-18T01:49:12.836Z,28.13
2023-01-18T01:51:46.055Z,23.70
2023-01-18T01:54:23.767Z,26.20
2023-01-18T01:56:55.503Z,24.23
2023-01-18T01:59:22.646Z,30.67
2023-01-18T02:01:49.696Z,29.40
2023-01-18T02:04:16.320Z,25.90
2023-01-18T02:06:42.674Z,22.23
2023-01-18T02:09:13.199Z,23.58
2023-01-18T02:11:41.154Z,24.85
2023-01-18T02:14:10.555Z,23.55
2023-01-18T02:17:08.739Z,29.60
2023-01-18T02:20:06.836Z,24.48
2023-01-18T02:22:48.204Z,21.55
2023-01-18T02:25:39.044Z,25.02
2023-01-18T02:28:17.146Z,28.65
2023-01-18T02:30:52.966Z,24.23
2023-01-18T02:33:46.974Z,25.67
2023-01-18T02:36:26.508Z,25.70
2023-01-18T02:39:00.220Z,27.88
2023-01-18T02:42:06.939Z,26.25
2023-01-18T02:47:24.689Z,20.63
2023-01-18T02:49:51.093Z,23.23
2023-01-18T02:52:41.254Z,27.40
2023-01-18T02:55:13.936Z,23.85
2023-01-18T02:57:40.472Z,23.80
2023-01-18T03:00:09.995Z,26.50
2023-01-18T03:02:38.214Z,26.02
2023-01-18T03:05:07.252Z,26.95
2023-01-18T03:07:58.767Z,25.17
2023-01-18T03:10:31.053Z,22.90
2023-01-18T03:13:03.924Z,27.42
2023-01-18T03:15:51.852Z,28.40
2023-01-18T03:18:21.992Z,27.15
2023-01-18T03:20:53.426Z,21.50
2023-01-18T03:23:40.983Z,22.65
2023-01-18T03:26:19.211Z,25.83
2023-01-18T03:29:10.730Z,20.88
2023-01-18T03:32:01.583Z,26.08
2023-01-18T03:34:33.254Z,27.17
2023-01-18T03:37:04.619Z,23.10
2023-01-18T03:39:42.925Z,24.15
2023-01-18T03:42:14.401Z,23.17
2023-01-18T03:44:48.013Z,22.83
2023-01-18T03:47:14.476Z,26.55
2023-01-18T03:49:41.192Z,26.13
2023-01-18T03:52:15.188Z,25.75
2023-01-18T03:54:56.771Z,29.10
2023-01-18T03:57:28.437Z,29.67
2023-01-18T03:59:55.283Z,28.88
2023-01-18T04:02:23.213Z,28.58
2023-01-18T04:04:50.027Z,30.58
2023-01-18T04:07:16.399Z,29.67
2023-01-18T04:09:42.803Z,23.05
2023-01-18T04:12:09.384Z,27.40
2023-01-18T04:14:35.743Z,25.13
2023-01-18T04:17:02.087Z,22.10
2023-01-18T04:19:28.637Z,23.67
2023-01-18T04:21:55.050Z,26.52
2023-01-18T04:24:21.438Z,22.60
2023-01-18T04:26:47.875Z,21.77
2023-01-18T04:29:14.234Z,23.02
2023-01-18T04:31:40.652Z,27.27
2023-01-18T04:34:07.199Z,21.65
2023-01-18T04:36:33.622Z,25.95
2023-01-18T04:39:00.179Z,26.88
2023-01-18T04:41:26.580Z,24.10
2023-01-18T04:43:53.039Z,22.33
2023-01-18T04:46:19.598Z,25.90
2023-01-18T04:48:50.603Z,27.02
2023-01-18T04:51:17.860Z,22.80
2023-01-18T04:53:45.025Z,24.25
2023-01-18T04:56:11.979Z,26.77
2023-01-18T04:58:38.707Z,25.83
2023-01-18T05:01:07.461Z,23.33
2023-01-18T05:03:38.387Z,24.00
2023-01-18T05:06:10.401Z,29.15
2023-01-18T05:08:41.193Z,24.35
2023-01-18T05:11:13.284Z,26.38
2023-01-18T05:13:40.457Z,29.85
2023-01-18T05:16:08.697Z,23.42
2023-01-18T05:18:35.175Z,25.30
2023-01-18T05:21:01.602Z,23.27
2023-01-18T05:23:28.124Z,25.73
2023-01-18T05:25:56.686Z,23.20
2023-01-18T05:28:24.452Z,22.80
2023-01-18T05:30:51.421Z,25.05
2023-01-18T05:33:19.179Z,25.52
2023-01-18T05:35:50.660Z,25.23
2023-01-18T05:38:17.830Z,23.58
2023-01-18T05:40:45.473Z,24.10
2023-01-18T05:43:12.721Z,20.85
2023-01-18T05:45:40.173Z,24.15
2023-01-18T05:48:06.587Z,29.30
2023-01-18T05:50:33.151Z,27.88
2023-01-18T05:53:00.418Z,27.15
2023-01-18T05:55:27.579Z,28.50
2023-01-18T05:57:54.184Z,29.17
2023-01-18T06:00:20.883Z,29.75
2023-01-18T06:02:47.246Z,30.05
2023-01-18T06:05:13.898Z,33.83
2023-01-18T06:07:42.085Z,29.15
2023-01-18T06:10:09.731Z,30.83
2023-01-18T06:12:36.206Z,30.45
2023-01-18T06:15:02.544Z,33.95
2023-01-18T06:17:31.293Z,31.60
2023-01-18T06:19:58.131Z,29.15
2023-01-18T06:22:24.484Z,33.40
2023-01-18T06:24:50.916Z,29.48
2023-01-18T06:27:17.318Z,31.42
2023-01-18T06:29:43.650Z,26.17
2023-01-18T06:32:10.071Z,26.48
2023-01-18T06:34:36.839Z,27.20
2023-01-18T06:37:04.228Z,24.63
2023-01-18T06:39:30.700Z,22.60
2023-01-18T06:41:57.030Z,29.45
2023-01-18T06:44:23.388Z,23.00
2023-01-18T06:46:49.849Z,25.52
2023-01-18T06:49:16.911Z,24.63
2023-01-18T06:51:43.323Z,22.73
2023-01-18T06:54:10.143Z,24.77
2023-01-18T06:56:36.524Z,25.45
2023-01-18T06:59:03.522Z,24.70
2023-01-18T07:01:29.996Z,26.25
2023-01-18T07:03:56.517Z,24.38
2023-01-18T07:06:22.989Z,29.70
2023-01-18T07:08:49.657Z,23.27
2023-01-18T07:11:16.260Z,22.60
2023-01-18T07:13:43.609Z,23.05
2023-01-18T07:16:18.221Z,25.20
2023-01-18T07:18:46.802Z,23.50
2023-01-18T07:21:15.143Z,26.80
2023-01-18T07:23:42.536Z,30.17
2023-01-18T07:26:11.407Z,23.27
2023-01-18T07:28:38.144Z,23.70
2023-01-18T07:31:06.118Z,23.45
2023-01-18T07:33:32.560Z,29.40
2023-01-18T07:35:59.293Z,25.92
2023-01-18T07:38:26.672Z,23.27
2023-01-18T07:41:05.163Z,28.88
2023-01-18T07:43:33.102Z,26.05
2023-01-18T07:46:00.598Z,26.95
2023-01-18T07:48:28.177Z,26.08
2023-01-18T07:51:03.942Z,28.20
2023-01-18T07:53:32.271Z,28.35
2023-01-18T07:56:00.770Z,21.75
2023-01-18T07:58:27.628Z,25.08
2023-01-18T08:00:53.984Z,24.05
2023-01-18T08:03:20.920Z,27.83
2023-01-18T08:05:47.557Z,22.92
2023-01-18T08:08:16.552Z,23.33
2023-01-18T08:10:43.887Z,27.98
2023-01-18T08:13:11.068Z,26.35
2023-01-18T08:15:39.047Z,28.23
2023-01-18T08:18:06.783Z,28.40
2023-01-18T08:20:33.478Z,27.60
2023-01-18T08:23:01.319Z,26.67
2023-01-18T08:25:29.780Z,27.45
2023-01-18T08:27:59.004Z,26.35
2023-01-18T08:30:28.112Z,25.77
2023-01-18T08:32:56.513Z,27.50
2023-01-18T08:35:34.820Z,29.80
2023-01-18T08:38:01.925Z,31.00
2023-01-18T08:40:29.907Z,27.05
2023-01-18T08:42:58.619Z,28.40
2023-01-18T08:45:25.814Z,26.08
2023-01-18T08:48:00.514Z,30.48
2023-01-18T08:50:27.859Z,27.83
2023-01-18T08:52:54.242Z,26.42
2023-01-18T08:55:22.017Z,29.75
2023-01-18T08:57:49.756Z,26.27
2023-01-18T09:00:17.431Z,27.85
2023-01-18T09:02:43.952Z,26.55
2023-01-18T09:05:10.617Z,27.98
2023-01-18T09:07:36.938Z,28.77
2023-01-18T09:10:04.355Z,28.10
2023-01-18T09:12:30.807Z,27.48
2023-01-18T09:14:57.160Z,26.33
2023-01-18T09:17:23.613Z,28.48
2023-01-18T09:19:49.919Z,27.77
2023-01-18T09:22:16.268Z,29.75
2023-01-18T09:24:42.762Z,26.58
2023-01-18T09:27:09.248Z,30.00
2023-01-18T09:29:35.647Z,26.50
2023-01-18T09:32:02.053Z,35.85
2023-01-18T09:34:28.536Z,28.30
2023-01-18T09:36:54.904Z,29.17
2023-01-18T09:39:22.299Z,28.33
2023-01-18T09:41:52.478Z,26.33
2023-01-18T09:44:29.397Z,28.63
2023-01-18T09:47:12.463Z,36.80
2023-01-18T09:50:13.462Z,23.17
2023-01-18T09:52:55.910Z,28.40
2023-01-18T09:55:43.728Z,21.02
2023-01-18T09:58:28.034Z,26.77
2023-01-18T10:00:58.838Z,26.50
2023-01-18T10:03:43.220Z,27.95
2023-01-18T10:06:19.490Z,24.95
2023-01-18T10:09:06.176Z,25.98
2023-01-18T10:11:44.942Z,26.95
2023-01-18T10:14:28.159Z,27.23
2023-01-18T10:17:00.322Z,29.08
2023-01-18T10:19:31.509Z,26.23
2023-01-18T10:22:02.348Z,30.83
2023-01-18T10:24:31.757Z,25.45
2023-01-18T10:27:23.288Z,29.23
2023-01-18T10:30:14.294Z,26.58
2023-01-18T10:32:50.671Z,26.13
2023-01-18T10:35:45.253Z,25.52
2023-01-18T10:38:15.336Z,25.63
2023-01-18T10:40:43.663Z,25.15
2023-01-18T10:43:15.739Z,25.75
2023-01-18T10:45:42.213Z,30.38
2023-01-18T10:48:17.515Z,25.92
2023-01-18T10:50:47.427Z,27.85
2023-01-18T10:53:32.798Z,28.67
2023-01-18T10:56:17.284Z,18.70
2023-01-18T10:58:46.751Z,28.95
2023-01-18T11:01:24.734Z,26.23
2023-01-18T11:04:05.762Z,28.27
2023-01-18T11:06:46.454Z,24.98
2023-01-18T11:09:39.184Z,29.20
2023-01-18T11:12:41.160Z,27.38
2023-01-18T11:15:13.646Z,23.67
2023-01-18T11:17:54.482Z,31.05
2023-01-18T11:20:28.262Z,31.70
2023-01-18T11:22:58.731Z,29.13
2023-01-18T11:25:27.601Z,28.58
2023-01-18T11:28:01.949Z,28.90
2023-01-18T11:30:28.848Z,28.92
2023-01-18T11:32:55.434Z,28.60
2023-01-18T11:35:32.803Z,27.00
2023-01-18T11:38:02.228Z,24.92
2023-01-18T11:40:32.141Z,27.38
2023-01-18T11:43:17.345Z,30.02
2023-01-18T11:45:49.781Z,29.75
2023-01-18T11:48:46.688Z,28.15
2023-01-18T11:51:22.755Z,27.73
2023-01-18T11:54:02.627Z,27.50
2023-01-18T11:56:40.625Z,30.88
2023-01-18T11:59:33.872Z,25.77
2023-01-18T12:02:30.968Z,26.13
2023-01-18T12:05:20.697Z,28.25
2023-01-18T12:07:59.951Z,27.25
2023-01-18T12:10:33.974Z,29.73
2023-01-18T12:13:28.685Z,28.42
2023-01-18T12:16:19.852Z,25.13
2023-01-18T12:19:16.792Z,26.55
2023-01-18T12:22:06.598Z,28.20
2023-01-18T12:24:42.586Z,28.75
2023-01-18T12:27:28.449Z,29.98
2023-01-18T12:30:21.436Z,26.60
2023-01-18T12:33:04.704Z,31.55
2023-01-18T12:35:49.727Z,27.58
2023-01-18T12:38:18.709Z,28.45
2023-01-18T12:40:53.942Z,29.73
2023-01-18T12:43:40.883Z,26.27
2023-01-18T12:46:10.792Z,25.63
2023-01-18T12:48:53.040Z,34.00
2023-01-18T12:51:24.224Z,27.10
2023-01-18T12:53:56.056Z,25.20
2023-01-18T12:56:32.165Z,27.15
2023-01-18T12:59:02.176Z,22.98
2023-01-18T13:01:39.010Z,28.05
2023-01-18T13:04:14.349Z,26.38
2023-01-18T13:06:42.881Z,25.70
2023-01-18T13:09:18.494Z,25.20
2023-01-18T13:14:26.449Z,21.38
2023-01-18T13:17:13.483Z,22.17
2023-01-18T13:20:00.367Z,23.42
2023-01-18T13:22:37.240Z,26.60
2023-01-18T13:25:26.320Z,22.33
2023-01-18T13:28:02.103Z,23.48
2023-01-18T13:30:34.838Z,22.80
2023-01-18T13:33:13.319Z,22.05
2023-01-18T13:35:51.288Z,23.40
2023-01-18T13:38:27.495Z,22.98
2023-01-18T13:41:02.701Z,23.67
2023-01-18T13:43:36.382Z,22.63
2023-01-18T13:46:05.683Z,23.27
2023-01-18T13:48:54.153Z,22.17
2023-01-18T13:51:39.238Z,23.77
2023-01-18T13:54:07.687Z,23.42
2023-01-18T13:56:38.417Z,26.20
2023-01-18T13:59:14.392Z,20.58
2023-01-18T14:01:43.996Z,23.48
2023-01-18T14:04:30.659Z,22.67
2023-01-18T14:07:00.730Z,22.27
2023-01-18T14:09:36.996Z,19.42
2023-01-18T14:12:04.479Z,34.42
2023-01-18T14:14:52.432Z,28.63
2023-01-18T14:17:19.256Z,36.17
2023-01-18T14:19:48.557Z,35.17
2023-01-18T14:22:45.830Z,37.50
2023-01-18T14:25:32.640Z,36.10
2023-01-18T14:28:13.436Z,33.30
2023-01-18T14:30:43.571Z,39.20
2023-01-18T14:33:23.746Z,40.35
2023-01-18T14:35:55.476Z,29.27
2023-01-18T14:38:21.881Z,30.95
2023-01-18T14:40:52.536Z,30.55
2023-01-18T14:43:32.051Z,29.55
2023-01-18T14:46:02.571Z,25.55
2023-01-18T14:48:31.826Z,28.75
2023-01-18T14:50:59.592Z,30.05
2023-01-18T14:53:29.827Z,32.22
2023-01-18T14:56:16.571Z,32.13
2023-01-18T14:59:00.939Z,33.60
2023-01-18T15:01:37.931Z,37.72
2023-01-18T15:04:18.279Z,39.42
2023-01-18T15:06:48.889Z,34.17
2023-01-18T15:09:18.252Z,31.92
2023-01-18T15:11:45.140Z,24.00
2023-01-18T15:14:24.957Z,20.92
2023-01-18T15:16:54.978Z,20.00
2023-01-18T15:19:24.716Z,17.33
2023-01-18T15:21:51.330Z,16.25
2023-01-18T15:24:20.998Z,20.02
2023-01-18T15:26:51.381Z,18.15
2023-01-18T15:29:32.180Z,15.48
2023-01-18T15:32:04.494Z,19.02
2023-01-18T15:34:36.973Z,18.05
2023-01-18T15:37:12.034Z,17.63
2023-01-18T15:39:49.702Z,16.67
2023-01-18T15:42:17.594Z,19.08
2023-01-18T15:44:47.901Z,13.25
2023-01-18T15:47:23.483Z,14.02
2023-01-18T15:49:52.289Z,19.35
2023-01-18T15:52:45.492Z,16.35
2023-01-18T15:55:28.292Z,17.42
2023-01-18T15:58:01.343Z,16.83
2023-01-18T16:00:41.026Z,20.98
2023-01-18T16:03:25.532Z,16.48
2023-01-18T16:06:05.711Z,14.93
2023-01-18T16:08:32.610Z,14.68
2023-01-18T16:10:59.038Z,15.25
2023-01-18T16:13:31.893Z,14.45
2023-01-18T16:16:15.740Z,13.57
2023-01-18T16:18:44.833Z,14.65
2023-01-18T16:21:22.439Z,17.40
2023-01-18T16:23:52.276Z,15.30
2023-01-18T16:26:23.366Z,18.77
2023-01-18T16:28:51.535Z,15.80
2023-01-18T16:31:20.969Z,15.15
2023-01-18T16:33:47.320Z,16.75
2023-01-18T16:36:16.920Z,17.67
2023-01-18T16:38:43.403Z,18.23
2023-01-18T16:41:10.787Z,16.20
2023-01-18T16:43:37.097Z,17.58
2023-01-18T16:46:04.514Z,14.65
2023-01-18T16:48:33.437Z,17.77
2023-01-18T16:51:01.248Z,15.55
2023-01-18T16:53:29.066Z,17.77
2023-01-18T16:55:56.687Z,14.63
2023-01-18T16:58:23.965Z,16.83
2023-01-18T17:01:07.518Z,15.25
2023-01-18T17:03:35.867Z,18.20
2023-01-18T17:06:02.673Z,16.08
2023-01-18T17:08:29.100Z,18.02
2023-01-18T17:10:55.861Z,16.50
2023-01-18T17:13:22.461Z,15.88
2023-01-18T17:15:49.164Z,17.30
2023-01-18T17:18:20.616Z,14.38
2023-01-18T17:20:47.044Z,17.58
2023-01-18T17:23:13.542Z,18.70
2023-01-18T17:25:40.405Z,20.90
2023-01-18T17:28:06.923Z,15.20
2023-01-18T17:30:33.417Z,16.42
2023-01-18T17:33:02.895Z,18.08
2023-01-18T17:35:29.465Z,15.93
2023-01-18T17:38:01.056Z,18.95
2023-01-18T17:40:39.976Z,17.08
2023-01-18T17:43:15.131Z,15.40
2023-01-18T17:45:48.383Z,18.67
2023-01-18T17:48:18.272Z,16.58
2023-01-18T17:50:44.608Z,21.70
2023-01-18T17:53:10.957Z,18.67
2023-01-18T17:55:40.281Z,16.77
2023-01-18T17:58:18.836Z,21.33
2023-01-18T18:00:45.325Z,13.98
2023-01-18T18:03:11.773Z,17.10
2023-01-18T18:05:38.259Z,16.33
2023-01-18T18:08:04.824Z,18.13
2023-01-18T18:10:31.551Z,19.77
2023-01-18T18:12:58.739Z,16.33
2023-01-18T18:15:25.282Z,15.52
2023-01-18T18:17:51.620Z,16.17
2023-01-18T18:20:18.194Z,16.38
2023-01-18T18:22:44.774Z,17.75
2023-01-18T18:25:11.193Z,15.35
2023-01-18T18:27:45.572Z,17.83
2023-01-18T18:30:13.124Z,16.50
2023-01-18T18:32:39.623Z,16.85
2023-01-18T18:35:23.001Z,18.15
2023-01-18T18:37:51.546Z,16.67
2023-01-18T18:40:18.797Z,17.55
2023-01-18T18:42:49.917Z,14.93
2023-01-18T18:45:26.946Z,16.63
2023-01-18T18:47:53.525Z,15.55
2023-01-18T18:50:19.928Z,15.25
2023-01-18T18:52:46.296Z,16.33
2023-01-18T18:55:12.823Z,13.13
2023-01-18T18:57:39.342Z,16.45
2023-01-18T19:00:07.400Z,14.35
2023-01-18T19:02:34.581Z,18.63
2023-01-18T19:05:01.845Z,23.83
2023-01-18T19:07:28.285Z,18.23
2023-01-18T19:09:54.651Z,18.67
2023-01-18T19:12:21.013Z,21.80
2023-01-18T19:14:47.716Z,20.38
2023-01-18T19:17:25.204Z,14.52
2023-01-18T19:19:55.504Z,14.70
2023-01-18T19:22:21.839Z,15.25
2023-01-18T19:24:48.495Z,16.17
2023-01-18T19:27:14.867Z,19.02
2023-01-18T19:29:41.439Z,16.67
2023-01-18T19:32:07.803Z,16.10
2023-01-18T19:34:34.267Z,14.13
2023-01-18T19:37:00.657Z,15.30
2023-01-18T19:39:27.018Z,20.50
2023-01-18T19:41:53.550Z,13.32
2023-01-18T19:44:19.852Z,19.48
2023-01-18T19:46:46.394Z,13.13
2023-01-18T19:49:12.725Z,15.40
2023-01-18T19:51:41.123Z,14.40
2023-01-18T19:54:09.837Z,14.40
2023-01-18T19:56:36.248Z,13.50
2023-01-18T19:59:03.638Z,16.45
2023-01-18T20:01:36.815Z,15.65
2023-01-18T20:04:05.805Z,16.67
2023-01-18T20:06:32.901Z,19.35
2023-01-18T20:08:59.323Z,14.40
2023-01-18T20:11:25.706Z,13.32
2023-01-18T20:13:52.185Z,15.73
2023-01-18T20:16:21.772Z,12.85
2023-01-18T20:18:48.746Z,11.63
2023-01-18T20:21:18.446Z,12.13
2023-01-18T20:23:45.448Z,11.40
2023-01-18T20:26:14.522Z,14.02
2023-01-18T20:28:41.981Z,14.63
2023-01-18T20:31:10.108Z,14.27
2023-01-18T20:33:38.062Z,11.75
2023-01-18T20:36:06.237Z,13.63
2023-01-18T20:38:33.693Z,10.55
2023-01-18T20:41:00.391Z,12.60
2023-01-18T20:43:27.085Z,10.35
2023-01-18T20:46:01.810Z,15.82
2023-01-18T20:48:28.754Z,14.77
2023-01-18T20:50:58.586Z,10.30
2023-01-18T20:53:26.421Z,12.70
2023-01-18T20:55:54.951Z,14.70
2023-01-18T20:58:22.744Z,14.48
2023-01-18T21:00:49.942Z,12.77
2023-01-18T21:03:19.546Z,13.98
2023-01-18T21:05:46.340Z,11.35
2023-01-18T21:08:13.257Z,12.95
2023-01-18T21:10:41.738Z,12.30
2023-01-18T21:13:09.632Z,10.80
2023-01-18T21:15:37.140Z,11.00
2023-01-18T21:18:05.252Z,13.77
2023-01-18T21:20:31.988Z,10.00
2023-01-18T21:22:59.906Z,10.20
2023-01-18T21:25:27.804Z,12.27
2023-01-18T21:27:54.711Z,13.65
2023-01-18T21:30:21.699Z,11.57
2023-01-18T21:32:48.320Z,12.05
2023-01-18T21:35:15.106Z,10.85
2023-01-18T21:37:41.778Z,10.43
2023-01-18T21:40:09.321Z,13.27
2023-01-18T21:42:54.359Z,12.57
2023-01-18T21:45:39.145Z,11.77
2023-01-18T21:48:08.812Z,10.32
2023-01-18T21:50:57.996Z,11.98
2023-01-18T21:53:47.808Z,10.80
2023-01-18T21:56:14.257Z,10.30
2023-01-18T21:58:52.843Z,10.98
2023-01-18T22:01:34.382Z,11.48
2023-01-18T22:04:21.551Z,10.98
2023-01-18T22:06:48.742Z,11.80
2023-01-18T22:09:15.574Z,10.52
2023-01-18T22:11:42.255Z,10.63
2023-01-18T22:14:09.347Z,11.30
2023-01-18T22:16:36.422Z,11.60
2023-01-18T22:19:04.816Z,9.45
2023-01-18T22:21:32.204Z,10.23
2023-01-18T22:23:58.594Z,12.30
2023-01-18T22:26:27.485Z,14.02
2023-01-18T22:28:53.838Z,10.85
2023-01-18T22:31:20.329Z,13.25
2023-01-18T22:33:48.274Z,11.57
2023-01-18T22:36:15.974Z,13.63
2023-01-18T22:38:42.490Z,13.10
2023-01-18T22:41:17.263Z,13.20
2023-01-18T22:43:44.975Z,11.20
2023-01-18T22:46:16.706Z,13.88
2023-01-18T22:48:43.778Z,13.18
2023-01-18T22:51:16.313Z,14.73
2023-01-18T22:53:44.270Z,13.00
2023-01-18T22:56:13.772Z,12.18
2023-01-18T22:58:40.540Z,11.57
2023-01-18T23:01:28.253Z,15.00
2023-01-18T23:04:02.506Z,13.02
2023-01-18T23:06:42.193Z,12.80
2023-01-18T23:09:10.029Z,13.95
2023-01-18T23:11:37.264Z,11.68
2023-01-18T23:14:23.487Z,12.95
2023-01-18T23:17:08.283Z,13.90
2023-01-18T23:19:34.921Z,12.88
2023-01-18T23:22:07.316Z,13.50
2023-01-18T23:24:35.693Z,16.23
2023-01-18T23:27:03.478Z,12.25
2023-01-18T23:29:29.914Z,12.90
2023-01-18T23:31:57.634Z,14.52
2023-01-18T23:34:24.810Z,13.43
2023-01-18T23:36:51.175Z,14.38
2023-01-18T23:39:36.380Z,11.23
2023-01-18T23:42:21.635Z,13.03
2023-01-18T23:45:06.386Z,11.52
2023-01-18T23:47:51.067Z,10.90
2023-01-18T23:50:35.945Z,13.50
2023-01-18T23:53:20.535Z,14.52
2023-01-18T23:55:47.116Z,12.90
2023-01-18T23:58:13.451Z,15.30
